Time;durP1;ratioP1;P1;durP2;ratioP2;P2;SDS_P1;SDS_P2;PMS_P1;PMS_P2;Temp;Humidity;BMP_temperature;BMP_pressure;BME280_temperature;BME280_humidity;BME280_pressure;Samples;Min_cycle;Max_cycle;Signal;HPM_P1;HPM_P2
2022/03/10 00:00:50;;;;;;;0.30;0.10;;;-0.70;99.80;;;;;;5070230;28;20204;-84
2022/03/10 00:03:17;;;;;;;0.30;0.10;;;-0.80;99.90;;;;;;5070504;28;20942;-85
2022/03/10 00:05:48;;;;;;;0.30;0.20;;;-0.70;99.90;;;;;;5065138;28;20243;-87
2022/03/10 00:08:15;;;;;;;0.30;0.10;;;-0.80;99.90;;;;;;5071843;28;20237;-89
2022/03/10 00:10:42;;;;;;;0.30;0.10;;;-1.00;99.90;;;;;;5066695;28;20204;-86
2022/03/10 00:13:10;;;;;;;0.30;0.10;;;-1.10;99.90;;;;;;5064593;28;20237;-88
2022/03/10 00:15:38;;;;;;;0.30;0.20;;;-1.20;99.90;;;;;;5069205;28;20665;-85
2022/03/10 00:18:05;;;;;;;0.30;0.10;;;-1.30;99.90;;;;;;5062024;28;20713;-87
2022/03/10 00:20:32;;;;;;;0.30;0.20;;;-1.30;99.90;;;;;;5068257;28;20260;-86
2022/03/10 00:22:59;;;;;;;0.35;0.25;;;-1.30;99.90;;;;;;5071343;28;20198;-88
2022/03/10 00:25:26;;;;;;;0.30;0.10;;;-1.30;99.90;;;;;;5079544;28;20282;-86
2022/03/10 00:27:53;;;;;;;0.30;0.10;;;-1.40;99.90;;;;;;5062505;28;20263;-86
2022/03/10 00:30:21;;;;;;;0.40;0.20;;;-1.40;99.90;;;;;;5064099;28;20209;-86
2022/03/10 00:32:50;;;;;;;0.30;0.10;;;-1.40;99.90;;;;;;5066334;28;20273;-86
2022/03/10 00:35:19;;;;;;;0.30;0.10;;;-1.40;99.90;;;;;;5065973;28;20260;-85
2022/03/10 00:37:47;;;;;;;0.30;0.10;;;-1.40;99.90;;;;;;5070305;28;20642;-86
2022/03/10 00:40:14;;;;;;;0.30;0.10;;;-1.50;99.90;;;;;;5064802;28;20204;-88
2022/03/10 00:42:42;;;;;;;0.30;0.10;;;-1.40;99.90;;;;;;5064460;28;20197;-86
2022/03/10 00:45:10;;;;;;;0.30;0.20;;;-1.30;99.90;;;;;;5070085;28;20225;-86
2022/03/10 00:47:39;;;;;;;0.30;0.10;;;-1.20;99.90;;;;;;5066625;28;20257;-87
2022/03/10 00:50:08;;;;;;;0.30;0.10;;;-1.10;99.90;;;;;;5067847;28;20210;-88
2022/03/10 00:52:40;;;;;;;0.30;0.10;;;-1.10;99.90;;;;;;5067654;28;20200;-86
2022/03/10 00:55:08;;;;;;;0.30;0.10;;;-1.20;99.90;;;;;;5068401;28;20207;-86
2022/03/10 00:57:36;;;;;;;0.30;0.10;;;-1.20;99.90;;;;;;5066189;28;20255;-86
2022/03/10 01:00:04;;;;;;;0.43;0.30;;;-1.20;99.90;;;;;;5067987;28;20684;-88
2022/03/10 01:02:31;;;;;;;0.30;0.10;;;-1.30;99.90;;;;;;5070208;28;20674;-88
2022/03/10 01:05:00;;;;;;;0.30;0.20;;;-1.40;99.90;;;;;;5058597;28;20228;-85
2022/03/10 01:07:27;;;;;;;0.30;0.10;;;-1.30;99.90;;;;;;5069686;28;20208;-88
2022/03/10 01:09:54;;;;;;;0.30;0.10;;;-1.30;99.90;;;;;;5070342;28;20204;-85
2022/03/10 01:12:21;;;;;;;0.30;0.10;;;-1.40;99.90;;;;;;5066180;28;20195;-86
2022/03/10 01:14:48;;;;;;;0.30;0.10;;;-1.50;99.90;;;;;;5067000;28;20207;-86
2022/03/10 01:17:14;;;;;;;0.30;0.10;;;-1.50;99.90;;;;;;5066837;28;20288;-86
2022/03/10 01:19:41;;;;;;;0.30;0.10;;;-1.50;99.90;;;;;;5065500;28;20209;-86
2022/03/10 01:22:10;;;;;;;0.30;0.10;;;-1.50;99.90;;;;;;5078934;28;20582;-86
2022/03/10 01:24:37;;;;;;;0.30;0.10;;;-1.50;99.90;;;;;;5070627;28;20227;-87
2022/03/10 01:27:04;;;;;;;0.30;0.10;;;-1.50;99.90;;;;;;5064119;28;20209;-86
2022/03/10 01:29:31;;;;;;;0.30;0.10;;;-1.60;99.90;;;;;;5065963;28;20202;-87
2022/03/10 01:31:58;;;;;;;0.30;0.20;;;-1.60;99.90;;;;;;5063226;28;20206;-85
2022/03/10 01:34:25;;;;;;;0.30;0.10;;;-1.60;99.90;;;;;;5065339;28;20204;-85
2022/03/10 01:36:52;;;;;;;0.30;0.10;;;-1.70;99.90;;;;;;5064664;28;20581;-85
2022/03/10 01:39:20;;;;;;;0.30;0.10;;;-1.70;99.90;;;;;;5066601;28;20198;-86
2022/03/10 01:41:47;;;;;;;0.30;0.15;;;-1.80;99.90;;;;;;5064855;28;20213;-86
2022/03/10 01:44:14;;;;;;;0.30;0.10;;;-1.90;99.90;;;;;;5068557;28;20759;-88
2022/03/10 01:46:41;;;;;;;0.35;0.28;;;-1.90;99.90;;;;;;5059829;28;20726;-86
2022/03/10 01:49:08;;;;;;;0.30;0.10;;;-1.90;99.90;;;;;;5067358;28;20301;-85
2022/03/10 01:51:35;;;;;;;0.30;0.10;;;-1.90;99.90;;;;;;5064461;28;20545;-86
2022/03/10 01:54:03;;;;;;;0.30;0.20;;;-1.90;99.90;;;;;;5069219;28;20684;-87
2022/03/10 01:56:33;;;;;;;0.30;0.10;;;-1.90;99.90;;;;;;5067440;28;20237;-86
2022/03/10 01:59:01;;;;;;;0.30;0.10;;;-1.90;99.90;;;;;;5065008;28;20618;-85
2022/03/10 02:01:28;;;;;;;0.30;0.10;;;-1.80;99.90;;;;;;5067716;28;20259;-85
2022/03/10 02:03:56;;;;;;;0.30;0.10;;;-1.90;99.90;;;;;;5066472;28;20610;-85
2022/03/10 02:06:24;;;;;;;0.30;0.10;;;-1.80;99.90;;;;;;5065595;28;20243;-87
2022/03/10 02:11:38;;;;;;;0.30;0.20;;;-1.60;99.90;;;;;;5065708;28;20214;-85
2022/03/10 02:19:30;;;;;;;0.30;0.10;;;-1.60;99.90;;;;;;5070463;28;20198;-86
2022/03/10 02:21:58;;;;;;;0.30;0.10;;;-1.60;99.90;;;;;;5069772;28;20262;-85
2022/03/10 02:24:26;;;;;;;0.35;0.17;;;-1.80;99.90;;;;;;5064915;28;20208;-86
2022/03/10 02:26:53;;;;;;;0.30;0.20;;;-1.80;99.90;;;;;;5061554;28;20257;-88
2022/03/10 02:29:20;;;;;;;0.65;0.60;;;-1.90;99.90;;;;;;5066542;28;20279;-87
2022/03/10 02:31:47;;;;;;;0.30;0.10;;;-1.90;99.90;;;;;;5064372;28;20202;-86
2022/03/10 02:34:14;;;;;;;0.30;0.10;;;-1.90;99.90;;;;;;5063560;28;20783;-85
2022/03/10 02:36:41;;;;;;;0.30;0.10;;;-1.80;99.90;;;;;;5062802;28;20208;-84
2022/03/10 02:39:08;;;;;;;0.30;0.10;;;-1.90;99.90;;;;;;5065385;28;20311;-84
2022/03/10 02:41:36;;;;;;;0.30;0.10;;;-2.00;99.90;;;;;;5060680;28;20226;-85
2022/03/10 02:44:03;;;;;;;0.30;0.10;;;-2.00;99.90;;;;;;5066147;28;20207;-85
2022/03/10 02:46:30;;;;;;;0.30;0.17;;;-2.00;99.90;;;;;;5063136;28;20261;-86
2022/03/10 02:48:57;;;;;;;0.30;0.10;;;-1.90;99.90;;;;;;5064949;28;20255;-87
2022/03/10 02:51:24;;;;;;;0.30;0.10;;;-1.90;99.90;;;;;;5067204;28;20728;-86
2022/03/10 02:53:51;;;;;;;0.30;0.10;;;-2.00;99.90;;;;;;5069176;28;20250;-88
2022/03/10 02:56:18;;;;;;;0.50;0.50;;;-2.10;99.90;;;;;;5060509;28;20268;-90
2022/03/10 02:58:46;;;;;;;0.30;0.10;;;-2.00;99.90;;;;;;5064502;28;20199;-87
2022/03/10 03:01:13;;;;;;;0.30;0.10;;;-2.10;99.90;;;;;;5064090;28;20211;-88
2022/03/10 03:03:40;;;;;;;0.30;0.10;;;-2.20;99.90;;;;;;5085181;28;20201;-88
2022/03/10 03:06:07;;;;;;;0.30;0.10;;;-2.20;99.90;;;;;;5065095;28;20227;-87
2022/03/10 03:08:35;;;;;;;0.30;0.10;;;-2.30;99.90;;;;;;5063195;28;20259;-86
2022/03/10 03:11:02;;;;;;;0.30;0.10;;;-2.20;99.90;;;;;;5067055;28;20751;-87
2022/03/10 03:13:29;;;;;;;0.30;0.10;;;-2.20;99.90;;;;;;5062396;28;20205;-86
2022/03/10 03:15:57;;;;;;;0.30;0.30;;;-2.20;99.90;;;;;;5066823;28;20202;-86
2022/03/10 03:18:24;;;;;;;0.30;0.10;;;-2.20;99.90;;;;;;5067327;28;20281;-87
2022/03/10 03:20:51;;;;;;;0.30;0.10;;;-2.30;99.90;;;;;;5061818;28;20270;-86
2022/03/10 03:23:18;;;;;;;0.30;0.10;;;-2.20;99.90;;;;;;5067450;28;20258;-87
2022/03/10 03:25:45;;;;;;;0.30;0.10;;;-2.20;99.90;;;;;;5065615;28;20265;-87
2022/03/10 03:28:12;;;;;;;0.30;0.10;;;-2.20;99.90;;;;;;5070368;28;20202;-87
2022/03/10 03:30:39;;;;;;;0.30;0.10;;;-2.30;99.90;;;;;;5066147;28;20264;-86
2022/03/10 03:33:07;;;;;;;0.30;0.10;;;-2.40;99.90;;;;;;5064927;28;20212;-87
2022/03/10 03:35:34;;;;;;;0.30;0.10;;;-2.40;99.90;;;;;;5066813;28;20977;-86
2022/03/10 03:38:01;;;;;;;0.30;0.10;;;-2.50;99.90;;;;;;5064510;28;20208;-86
2022/03/10 03:40:28;;;;;;;0.30;0.10;;;-2.50;99.90;;;;;;5068979;28;20202;-86
2022/03/10 03:42:55;;;;;;;0.30;0.10;;;-2.40;99.90;;;;;;5070871;28;20255;-86
2022/03/10 03:45:22;;;;;;;0.30;0.10;;;-2.40;99.90;;;;;;5068289;28;20221;-86
2022/03/10 03:47:49;;;;;;;0.30;0.10;;;-2.40;99.90;;;;;;5062285;28;20581;-86
2022/03/10 03:50:17;;;;;;;0.30;0.10;;;-2.40;99.90;;;;;;5069180;28;20234;-87
2022/03/10 03:52:44;;;;;;;0.30;0.10;;;-2.50;99.90;;;;;;5070259;28;20206;-88
2022/03/10 03:55:12;;;;;;;0.30;0.10;;;-2.40;99.90;;;;;;5069482;28;20206;-86
2022/03/10 03:57:39;;;;;;;0.30;0.10;;;-2.40;99.90;;;;;;5068539;28;20199;-86
2022/03/10 04:00:08;;;;;;;0.30;0.20;;;-2.50;99.90;;;;;;5066496;28;20234;-87
2022/03/10 04:02:35;;;;;;;0.30;0.10;;;-2.50;99.90;;;;;;5066349;28;20197;-88
2022/03/10 04:05:02;;;;;;;0.30;0.10;;;-2.50;99.90;;;;;;5068305;28;20196;-87
2022/03/10 04:07:31;;;;;;;0.40;0.40;;;-2.50;99.90;;;;;;5069161;28;20199;-88
2022/03/10 04:09:58;;;;;;;0.30;0.10;;;-2.60;99.90;;;;;;5070315;28;20202;-87
2022/03/10 04:12:25;;;;;;;0.30;0.10;;;-2.60;99.90;;;;;;5070811;28;20231;-87
2022/03/10 04:14:52;;;;;;;0.30;0.10;;;-2.60;99.90;;;;;;5068975;28;20715;-88
2022/03/10 04:17:19;;;;;;;0.30;0.10;;;-2.60;99.90;;;;;;5068475;28;20236;-86
2022/03/10 04:19:46;;;;;;;0.30;0.10;;;-2.70;99.90;;;;;;5066144;28;20237;-87
2022/03/10 04:22:13;;;;;;;0.30;0.10;;;-2.70;99.90;;;;;;5069505;28;20209;-87
2022/03/10 04:24:41;;;;;;;0.30;0.10;;;-2.70;99.90;;;;;;5070925;28;20264;-87
2022/03/10 04:27:08;;;;;;;0.30;0.10;;;-2.70;99.90;;;;;;5070861;28;20225;-86
2022/03/10 04:29:35;;;;;;;0.30;0.10;;;-2.70;99.90;;;;;;5068957;28;20233;-86
2022/03/10 04:32:02;;;;;;;0.30;0.10;;;-2.70;99.90;;;;;;5070614;28;20251;-86
2022/03/10 04:34:29;;;;;;;0.30;0.10;;;-2.70;99.90;;;;;;5063907;28;20250;-86
2022/03/10 04:36:56;;;;;;;0.30;0.10;;;-2.70;99.90;;;;;;5067177;28;20233;-88
2022/03/10 04:39:22;;;;;;;0.65;0.60;;;-2.70;99.90;;;;;;5062420;28;20204;-86
2022/03/10 04:41:51;;;;;;;0.30;0.10;;;-2.80;99.90;;;;;;5059055;28;20726;-87
2022/03/10 04:44:18;;;;;;;0.30;0.10;;;-2.70;99.90;;;;;;5062817;28;20570;-86
2022/03/10 04:46:45;;;;;;;0.30;0.10;;;-2.80;99.90;;;;;;5065863;28;20225;-87
2022/03/10 04:49:12;;;;;;;0.30;0.10;;;-2.90;99.90;;;;;;5067968;28;20234;-86
2022/03/10 04:51:39;;;;;;;0.30;0.10;;;-2.90;99.90;;;;;;5068850;28;20721;-86
2022/03/10 04:54:06;;;;;;;0.30;0.10;;;-2.90;99.90;;;;;;5067087;28;20256;-88
2022/03/10 04:56:34;;;;;;;0.30;0.10;;;-3.00;99.90;;;;;;5065861;28;20247;-86
2022/03/10 04:59:03;;;;;;;0.30;0.10;;;-3.00;99.90;;;;;;5073613;28;20202;-86
2022/03/10 05:01:30;;;;;;;0.30;0.10;;;-3.10;99.90;;;;;;5068378;28;20198;-85
2022/03/10 05:03:57;;;;;;;0.40;0.30;;;-3.10;99.90;;;;;;5066841;28;20202;-86
2022/03/10 05:06:24;;;;;;;0.30;0.10;;;-3.10;99.90;;;;;;5061479;28;20226;-86
2022/03/10 05:08:51;;;;;;;0.30;0.10;;;-3.20;99.90;;;;;;5067068;28;20205;-87
2022/03/10 05:11:18;;;;;;;0.30;0.10;;;-3.20;99.90;;;;;;5062822;28;20439;-86
2022/03/10 05:13:45;;;;;;;0.30;0.10;;;-3.20;99.90;;;;;;5069061;28;20241;-88
2022/03/10 05:16:13;;;;;;;0.30;0.20;;;-3.30;99.90;;;;;;5066319;28;20291;-87
2022/03/10 05:18:41;;;;;;;0.30;0.20;;;-3.30;99.90;;;;;;5066991;28;20206;-87
2022/03/10 05:21:08;;;;;;;0.30;0.20;;;-3.40;99.90;;;;;;5064151;28;20293;-86
2022/03/10 05:23:35;;;;;;;0.30;0.10;;;-3.40;99.90;;;;;;5066054;28;20221;-87
2022/03/10 05:26:02;;;;;;;0.30;0.10;;;-3.40;99.90;;;;;;5064157;28;21019;-87
2022/03/10 05:28:28;;;;;;;0.30;0.10;;;-3.40;99.90;;;;;;5059553;28;20252;-88
2022/03/10 05:30:55;;;;;;;0.30;0.10;;;-3.40;99.90;;;;;;5060181;28;20209;-90
2022/03/10 05:33:24;;;;;;;0.30;0.10;;;-3.40;99.90;;;;;;5061544;28;20286;-90
2022/03/10 05:35:51;;;;;;;0.30;0.10;;;-3.40;99.90;;;;;;5060018;28;20220;-87
2022/03/10 05:38:18;;;;;;;0.30;0.10;;;-3.40;99.90;;;;;;5062185;28;20300;-88
2022/03/10 05:40:44;;;;;;;0.40;0.22;;;-3.40;99.90;;;;;;5067127;28;20225;-87
2022/03/10 05:43:12;;;;;;;0.30;0.10;;;-3.40;99.90;;;;;;5061796;28;20206;-87
2022/03/10 05:45:39;;;;;;;0.30;0.10;;;-3.30;99.90;;;;;;5062996;28;20237;-88
2022/03/10 05:48:06;;;;;;;0.30;0.10;;;-3.30;99.90;;;;;;5066883;28;20201;-84
2022/03/10 05:50:35;;;;;;;0.47;0.47;;;-3.20;99.90;;;;;;5065884;28;20204;-83
2022/03/10 05:53:03;;;;;;;0.30;0.10;;;-3.10;99.90;;;;;;5055403;28;20210;-83
2022/03/10 05:55:30;;;;;;;0.30;0.10;;;-3.00;99.90;;;;;;5064779;28;20194;-86
2022/03/10 05:57:57;;;;;;;0.30;0.10;;;-3.00;99.90;;;;;;5056220;28;20202;-86
2022/03/10 06:00:24;;;;;;;0.30;0.10;;;-2.90;99.90;;;;;;5061305;28;20867;-86
2022/03/10 06:02:51;;;;;;;0.80;0.68;;;-2.90;99.90;;;;;;5059315;28;20260;-84
2022/03/10 06:05:18;;;;;;;0.30;0.10;;;-2.80;99.90;;;;;;5069705;28;20201;-85
2022/03/10 06:07:47;;;;;;;0.30;0.10;;;-2.70;99.90;;;;;;5062864;28;20283;-84
2022/03/10 06:10:14;;;;;;;0.30;0.10;;;-2.60;99.90;;;;;;5063893;28;20292;-83
2022/03/10 06:12:41;;;;;;;0.40;0.20;;;-2.50;99.90;;;;;;5067943;28;20202;-83
2022/03/10 06:15:09;;;;;;;0.30;0.10;;;-2.40;99.90;;;;;;5060358;28;20622;-82
2022/03/10 06:17:37;;;;;;;0.30;0.10;;;-2.20;99.90;;;;;;5067685;28;20234;-83
2022/03/10 06:20:06;;;;;;;0.30;0.10;;;-2.10;99.90;;;;;;5061100;28;20282;-83
2022/03/10 06:22:33;;;;;;;0.30;0.10;;;-1.90;99.90;;;;;;5067622;28;20288;-83
2022/03/10 06:25:01;;;;;;;0.30;0.10;;;-1.70;99.90;;;;;;5056275;28;20204;-82
2022/03/10 06:27:28;;;;;;;0.30;0.10;;;-1.60;99.90;;;;;;5063912;28;20229;-82
2022/03/10 06:29:56;;;;;;;0.30;0.10;;;-1.50;99.90;;;;;;5060209;28;20194;-82
2022/03/10 06:32:24;;;;;;;0.30;0.10;;;-1.40;99.90;;;;;;5066686;28;20198;-86
2022/03/10 06:34:53;;;;;;;0.30;0.20;;;-1.30;99.90;;;;;;5068675;28;20206;-82
2022/03/10 06:37:21;;;;;;;0.30;0.10;;;-1.20;99.90;;;;;;5061289;28;20207;-85
2022/03/10 06:39:48;;;;;;;0.30;0.20;;;-1.10;99.90;;;;;;5063874;28;20205;-82
2022/03/10 06:42:17;;;;;;;0.30;0.20;;;-1.00;99.90;;;;;;5062645;28;20271;-83
2022/03/10 06:44:44;;;;;;;0.40;0.30;;;-1.00;99.90;;;;;;5062197;28;20285;-83
2022/03/10 06:47:12;;;;;;;0.30;0.10;;;-0.70;99.90;;;;;;5057958;28;20214;-84
2022/03/10 06:49:39;;;;;;;0.30;0.10;;;-0.70;99.90;;;;;;5049323;28;20402;-86
2022/03/10 06:52:08;;;;;;;0.30;0.20;;;-0.50;99.90;;;;;;5050820;28;20199;-87
2022/03/10 06:54:35;;;;;;;0.30;0.10;;;-0.40;99.90;;;;;;5069077;28;20211;-85
2022/03/10 06:57:02;;;;;;;0.30;0.10;;;-0.40;99.90;;;;;;5069054;28;20260;-88
2022/03/10 06:59:30;;;;;;;0.30;0.10;;;-0.30;99.90;;;;;;5060549;28;20720;-83
2022/03/10 07:01:57;;;;;;;0.30;0.10;;;-0.10;99.90;;;;;;5064105;28;20229;-83
2022/03/10 07:04:24;;;;;;;0.30;0.10;;;0.00;99.90;;;;;;5069305;28;20252;-86
2022/03/10 07:06:51;;;;;;;0.30;0.10;;;0.00;99.90;;;;;;5066810;28;20722;-85
2022/03/10 07:09:19;;;;;;;0.30;0.10;;;0.20;99.90;;;;;;5056107;28;20723;-84
2022/03/10 07:11:46;;;;;;;0.30;0.10;;;0.30;99.90;;;;;;5055490;28;20199;-86
2022/03/10 07:14:13;;;;;;;0.30;0.10;;;0.30;99.90;;;;;;5068058;28;20266;-81
2022/03/10 07:16:41;;;;;;;0.47;0.47;;;0.40;99.90;;;;;;5061735;28;20301;-80
2022/03/10 07:19:09;;;;;;;0.40;0.30;;;0.50;99.90;;;;;;5066345;28;20286;-85
2022/03/10 07:21:38;;;;;;;0.30;0.10;;;0.60;99.90;;;;;;5073384;28;20207;-82
2022/03/10 07:24:06;;;;;;;0.30;0.10;;;0.70;99.90;;;;;;5064613;28;20216;-80
2022/03/10 07:26:34;;;;;;;0.30;0.10;;;0.80;99.90;;;;;;5066609;28;20872;-83
2022/03/10 07:29:01;;;;;;;0.30;0.17;;;0.80;99.90;;;;;;5064852;28;20914;-81
2022/03/10 07:31:28;;;;;;;0.30;0.10;;;0.90;99.90;;;;;;5063429;28;20758;-79
2022/03/10 07:33:56;;;;;;;0.30;0.10;;;0.90;99.90;;;;;;5065136;28;20199;-83
2022/03/10 07:36:23;;;;;;;0.30;0.10;;;0.90;99.90;;;;;;5067346;28;20209;-81
2022/03/10 07:38:50;;;;;;;0.30;0.10;;;1.00;99.90;;;;;;5058095;28;20288;-83
2022/03/10 07:41:17;;;;;;;0.30;0.10;;;1.10;99.90;;;;;;5063931;28;20368;-83
2022/03/10 07:43:45;;;;;;;0.30;0.10;;;1.20;99.90;;;;;;5066263;28;20201;-82
2022/03/10 07:46:12;;;;;;;0.30;0.10;;;1.30;99.90;;;;;;5065635;28;20526;-81
2022/03/10 07:48:39;;;;;;;0.40;0.40;;;1.50;99.90;;;;;;5067011;28;20265;-83
2022/03/10 07:51:07;;;;;;;0.70;0.50;;;1.60;99.90;;;;;;5069278;28;20260;-81
2022/03/10 07:53:36;;;;;;;0.30;0.20;;;1.70;99.90;;;;;;5063601;28;20524;-85
2022/03/10 07:56:04;;;;;;;0.30;0.20;;;1.90;99.40;;;;;;5064151;28;20640;-80
2022/03/10 07:58:31;;;;;;;1.37;0.60;;;2.10;98.70;;;;;;5056466;28;20886;-83
2022/03/10 08:00:58;;;;;;;0.30;0.10;;;2.30;98.90;;;;;;5065439;28;20975;-85
2022/03/10 08:03:25;;;;;;;0.30;0.10;;;2.40;98.40;;;;;;5071912;28;20516;-83
2022/03/10 08:05:53;;;;;;;0.30;0.10;;;2.50;97.10;;;;;;5069226;28;20559;-85
2022/03/10 08:08:21;;;;;;;0.30;0.10;;;2.60;97.70;;;;;;5062388;28;20590;-82
2022/03/10 08:10:48;;;;;;;6.63;0.70;;;2.80;97.00;;;;;;5069042;28;21007;-83
2022/03/10 08:13:15;;;;;;;0.30;0.17;;;2.90;96.30;;;;;;5072257;28;20459;-82
2022/03/10 08:15:43;;;;;;;0.30;0.10;;;2.90;96.30;;;;;;5068020;28;20497;-82
2022/03/10 08:18:11;;;;;;;0.30;0.10;;;2.90;95.90;;;;;;5067324;28;20537;-83
2022/03/10 08:20:39;;;;;;;0.30;0.10;;;3.00;96.20;;;;;;5059898;28;20545;-84
2022/03/10 08:23:06;;;;;;;0.40;0.30;;;3.00;95.50;;;;;;5069513;28;20491;-82
2022/03/10 08:25:36;;;;;;;0.30;0.13;;;3.10;95.40;;;;;;5068364;28;20464;-86
2022/03/10 08:28:04;;;;;;;0.30;0.20;;;3.30;95.30;;;;;;5069674;28;20483;-85
2022/03/10 08:30:31;;;;;;;0.30;0.10;;;3.40;94.80;;;;;;5070246;28;20459;-82
2022/03/10 08:32:58;;;;;;;0.30;0.17;;;3.40;94.40;;;;;;5051017;28;21003;-82
2022/03/10 08:35:25;;;;;;;0.30;0.20;;;3.50;94.50;;;;;;5069567;28;20448;-85
2022/03/10 08:37:53;;;;;;;0.40;0.40;;;3.50;95.40;;;;;;5067355;28;20461;-82
2022/03/10 08:40:20;;;;;;;0.30;0.10;;;3.80;95.40;;;;;;5058751;28;20514;-82
2022/03/10 08:42:50;;;;;;;0.50;0.50;;;3.80;95.50;;;;;;5055113;28;20507;-82
2022/03/10 08:45:17;;;;;;;0.30;0.20;;;3.90;95.70;;;;;;5067998;28;20452;-82
2022/03/10 08:47:45;;;;;;;0.30;0.10;;;3.90;95.50;;;;;;5071525;28;20541;-82
2022/03/10 08:50:12;;;;;;;0.30;0.20;;;4.10;95.80;;;;;;5069525;28;20461;-82
2022/03/10 08:52:40;;;;;;;0.30;0.10;;;4.30;95.20;;;;;;5058743;28;20456;-81
2022/03/10 08:55:08;;;;;;;0.40;0.30;;;4.50;93.90;;;;;;5066709;28;20518;-83
2022/03/10 08:57:36;;;;;;;0.30;0.20;;;4.50;93.00;;;;;;5053911;28;20472;-82
2022/03/10 09:00:06;;;;;;;0.83;0.60;;;4.40;92.20;;;;;;5054795;28;20484;-82
2022/03/10 09:02:33;;;;;;;0.63;0.63;;;4.30;92.40;;;;;;5064240;28;20643;-83
2022/03/10 09:05:00;;;;;;;0.43;0.37;;;4.40;92.20;;;;;;5067170;28;20524;-87
2022/03/10 09:07:27;;;;;;;0.30;0.10;;;4.50;92.20;;;;;;5068768;28;21066;-83
2022/03/10 09:09:54;;;;;;;0.30;0.10;;;4.60;91.70;;;;;;5054950;28;20526;-82
2022/03/10 09:12:21;;;;;;;0.30;0.10;;;4.80;92.80;;;;;;5062078;28;20490;-82
2022/03/10 09:14:48;;;;;;;0.30;0.10;;;4.80;93.20;;;;;;5057273;28;20497;-83
2022/03/10 09:17:17;;;;;;;1.30;0.63;;;4.70;92.90;;;;;;5057736;28;20484;-82
2022/03/10 09:19:44;;;;;;;0.30;0.10;;;4.90;93.30;;;;;;5051894;28;20503;-83
2022/03/10 09:22:10;;;;;;;0.30;0.10;;;4.80;92.30;;;;;;5061951;28;20521;-82
2022/03/10 09:24:37;;;;;;;0.30;0.20;;;4.90;93.00;;;;;;5064787;28;20545;-85
2022/03/10 09:27:07;;;;;;;0.30;0.10;;;5.00;93.60;;;;;;5067397;28;20949;-82
2022/03/10 09:29:34;;;;;;;0.30;0.10;;;5.00;92.80;;;;;;5070037;28;20456;-83
2022/03/10 09:32:01;;;;;;;0.30;0.20;;;5.00;93.20;;;;;;5062638;28;20538;-82
2022/03/10 09:34:29;;;;;;;0.30;0.10;;;5.10;92.40;;;;;;5065508;28;21079;-83
2022/03/10 09:36:56;;;;;;;0.30;0.10;;;5.10;92.20;;;;;;5064087;28;20931;-83
2022/03/10 09:39:23;;;;;;;0.30;0.20;;;5.00;92.10;;;;;;5067371;28;20861;-83
2022/03/10 09:41:50;;;;;;;0.30;0.10;;;5.20;92.70;;;;;;5068612;28;20493;-83
2022/03/10 09:44:19;;;;;;;0.40;0.37;;;5.40;92.40;;;;;;5067443;28;20495;-83
2022/03/10 09:46:50;;;;;;;0.30;0.10;;;5.40;92.20;;;;;;5067504;28;20526;-83
2022/03/10 09:49:17;;;;;;;0.40;0.20;;;5.70;92.80;;;;;;5063800;28;21017;-84
2022/03/10 09:51:46;;;;;;;0.30;0.20;;;5.90;91.60;;;;;;5071028;28;20452;-83
2022/03/10 09:54:13;;;;;;;0.30;0.10;;;6.00;91.80;;;;;;5063288;28;20463;-85
2022/03/10 09:56:42;;;;;;;0.30;0.10;;;6.30;91.60;;;;;;5061748;28;20572;-84
2022/03/10 09:59:09;;;;;;;0.30;0.10;;;6.30;90.60;;;;;;5070168;28;20536;-83
2022/03/10 10:01:37;;;;;;;0.30;0.20;;;6.60;90.90;;;;;;5067389;28;20452;-83
2022/03/10 10:04:06;;;;;;;0.60;0.60;;;6.70;88.30;;;;;;5060514;28;20467;-84
2022/03/10 10:06:35;;;;;;;0.30;0.20;;;6.80;88.60;;;;;;5062889;28;20491;-86
2022/03/10 10:09:04;;;;;;;0.30;0.20;;;6.80;87.20;;;;;;5067126;28;20511;-83
2022/03/10 10:11:32;;;;;;;0.30;0.20;;;6.80;86.70;;;;;;5061368;28;20465;-88
2022/03/10 10:13:59;;;;;;;0.30;0.20;;;7.00;85.00;;;;;;5059935;28;20456;-87
2022/03/10 10:16:26;;;;;;;1.80;1.27;;;7.00;83.30;;;;;;5064941;28;20454;-86
2022/03/10 10:18:57;;;;;;;0.30;0.20;;;7.10;82.40;;;;;;5061064;28;20540;-85
2022/03/10 10:21:25;;;;;;;0.37;0.23;;;7.00;79.90;;;;;;5064569;28;20490;-83
2022/03/10 10:23:54;;;;;;;2.00;1.17;;;7.20;80.80;;;;;;5065234;28;20468;-86
2022/03/10 10:26:28;;;;;;;1.47;0.80;;;7.50;83.10;;;;;;5065168;28;20472;-84
2022/03/10 10:28:55;;;;;;;0.30;0.10;;;7.80;82.90;;;;;;5066994;28;20557;-83
2022/03/10 10:31:25;;;;;;;0.30;0.20;;;7.50;79.10;;;;;;5059885;28;20923;-83
2022/03/10 10:34:03;;;;;;;0.30;0.20;;;7.50;77.00;;;;;;5057049;28;20547;-83
2022/03/10 10:36:32;;;;;;;0.50;0.50;;;7.60;78.00;;;;;;5065172;28;20455;-83
2022/03/10 10:39:08;;;;;;;0.40;0.30;;;7.70;78.60;;;;;;5062689;28;20484;-82
2022/03/10 10:41:38;;;;;;;0.37;0.20;;;7.80;79.20;;;;;;5067740;28;21014;-85
2022/03/10 10:44:07;;;;;;;0.30;0.20;;;7.80;77.50;;;;;;5071445;28;20490;-86
2022/03/10 10:46:35;;;;;;;0.30;0.20;;;7.90;75.20;;;;;;5072562;28;20846;-82
2022/03/10 10:49:04;;;;;;;0.37;0.20;;;8.10;75.30;;;;;;5062819;28;20541;-83
2022/03/10 10:51:35;;;;;;;1.93;0.77;;;8.30;76.40;;;;;;5059797;28;20459;-84
2022/03/10 10:54:03;;;;;;;0.37;0.20;;;8.40;72.60;;;;;;5063918;28;20459;-86
2022/03/10 10:56:32;;;;;;;0.30;0.20;;;8.40;69.20;;;;;;5060873;28;20459;-85
2022/03/10 10:59:02;;;;;;;0.40;0.20;;;8.40;73.50;;;;;;5068599;28;20502;-86
2022/03/10 11:01:36;;;;;;;0.40;0.20;;;8.50;71.50;;;;;;5063763;28;20958;-84
2022/03/10 11:04:05;;;;;;;0.30;0.20;;;8.30;68.50;;;;;;5060413;28;20471;-85
2022/03/10 11:06:34;;;;;;;0.40;0.20;;;8.50;72.40;;;;;;5062366;28;20547;-84
2022/03/10 11:09:01;;;;;;;1.80;0.83;;;8.60;72.40;;;;;;5067282;28;21135;-86
2022/03/10 11:11:28;;;;;;;0.40;0.20;;;8.50;68.60;;;;;;5061929;28;20460;-85
2022/03/10 11:13:55;;;;;;;0.60;0.60;;;8.40;66.00;;;;;;5066710;28;20440;-83
2022/03/10 11:16:24;;;;;;;0.30;0.20;;;8.50;69.30;;;;;;5063826;28;21345;-85
2022/03/10 11:18:53;;;;;;;0.30;0.20;;;8.90;69.90;;;;;;5066498;28;20456;-84
2022/03/10 11:22:01;;;;;;;0.40;0.20;;;8.80;68.90;;;;;;5068950;28;20871;-86
2022/03/10 11:24:49;;;;;;;0.30;0.20;;;9.00;67.60;;;;;;5054630;28;20463;-84
2022/03/10 11:27:21;;;;;;;0.30;0.20;;;9.20;66.90;;;;;;5066177;28;20505;-84
2022/03/10 11:29:51;;;;;;;0.77;0.30;;;9.40;65.10;;;;;;5069951;28;20462;-85
2022/03/10 11:32:19;;;;;;;0.40;0.30;;;9.00;63.60;;;;;;5057282;28;20500;-83
2022/03/10 11:34:51;;;;;;;0.40;0.20;;;8.90;63.50;;;;;;5066741;28;20464;-84
2022/03/10 11:37:52;;;;;;;0.30;0.20;;;8.70;62.60;;;;;;5061386;28;20522;-85
2022/03/10 11:40:38;;;;;;;0.30;0.20;;;8.90;64.10;;;;;;5062757;28;20451;-83
2022/03/10 11:43:05;;;;;;;0.30;0.17;;;8.80;65.40;;;;;;5059356;28;20509;-87
2022/03/10 11:45:32;;;;;;;0.30;0.20;;;9.30;65.10;;;;;;5057680;28;20468;-83
2022/03/10 11:48:38;;;;;;;0.37;0.20;;;9.30;62.30;;;;;;5060544;28;20978;-86
2022/03/10 11:51:19;;;;;;;0.40;0.20;;;9.20;61.20;;;;;;5071100;28;20491;-83
2022/03/10 11:54:05;;;;;;;0.40;0.23;;;9.60;66.50;;;;;;5070607;28;20486;-83
2022/03/10 11:57:06;;;;;;;0.30;0.20;;;9.80;63.10;;;;;;5060619;28;21109;-84
2022/03/10 12:00:00;;;;;;;0.40;0.20;;;9.50;61.10;;;;;;5062200;28;20480;-86
2022/03/10 12:02:45;;;;;;;0.30;0.20;;;9.40;64.00;;;;;;5066499;28;20562;-83
2022/03/10 12:05:16;;;;;;;0.40;0.20;;;9.50;62.40;;;;;;5063158;28;20538;-84
2022/03/10 12:07:45;;;;;;;0.40;0.40;;;9.50;62.20;;;;;;5064167;28;20556;-85
2022/03/10 12:10:17;;;;;;;0.40;0.20;;;9.30;59.70;;;;;;5057825;28;20452;-84
2022/03/10 12:12:46;;;;;;;0.33;0.20;;;9.30;59.50;;;;;;5069121;28;20505;-84
2022/03/10 12:15:46;;;;;;;0.30;0.10;;;9.30;60.70;;;;;;5061800;28;20481;-86
2022/03/10 12:18:16;;;;;;;0.40;0.20;;;9.30;59.70;;;;;;5051839;28;20578;-84
2022/03/10 12:20:46;;;;;;;0.40;0.20;;;9.40;60.70;;;;;;5066600;28;20482;-85
2022/03/10 12:23:15;;;;;;;0.40;0.20;;;9.50;60.10;;;;;;5069549;28;20459;-85
2022/03/10 12:25:44;;;;;;;0.40;0.20;;;9.80;60.60;;;;;;5059701;28;20465;-87
2022/03/10 12:28:12;;;;;;;0.40;0.20;;;10.10;59.20;;;;;;5071217;28;20543;-84
2022/03/10 12:30:44;;;;;;;0.40;0.20;;;9.90;59.40;;;;;;5067673;28;20464;-84
2022/03/10 12:33:11;;;;;;;0.40;0.23;;;9.90;59.20;;;;;;5055132;28;20464;-84
2022/03/10 12:35:40;;;;;;;1.90;0.57;;;9.70;58.40;;;;;;5061591;28;20455;-83
2022/03/10 12:38:10;;;;;;;0.37;0.20;;;9.40;58.50;;;;;;5077122;28;20467;-83
2022/03/10 12:40:38;;;;;;;0.40;0.20;;;9.60;61.30;;;;;;5072942;28;20452;-84
2022/03/10 12:43:07;;;;;;;0.30;0.20;;;9.80;59.80;;;;;;5066392;28;20470;-85
2022/03/10 12:45:42;;;;;;;0.40;0.20;;;10.20;59.50;;;;;;5066339;28;21080;-87
2022/03/10 12:48:14;;;;;;;0.40;0.20;;;10.10;59.10;;;;;;5067666;28;20483;-84
2022/03/10 12:50:44;;;;;;;0.40;0.40;;;10.10;58.10;;;;;;5059426;28;20454;-84
2022/03/10 12:53:14;;;;;;;1.37;1.30;;;10.10;58.60;;;;;;5062839;28;20490;-86
2022/03/10 12:55:41;;;;;;;0.50;0.50;;;10.40;59.40;;;;;;5067155;28;20819;-87
2022/03/10 12:58:08;;;;;;;0.40;0.27;;;10.30;57.40;;;;;;5060347;28;20452;-88
2022/03/10 13:00:39;;;;;;;0.40;0.20;;;10.00;56.50;;;;;;5056433;28;20463;-84
2022/03/10 13:03:06;;;;;;;0.50;0.50;;;9.80;57.80;;;;;;5060651;28;20545;-84
2022/03/10 13:05:37;;;;;;;0.33;0.10;;;9.80;58.40;;;;;;5054466;28;20467;-84